< < Back
Terminal Aerodrome Forecast


Current Version              Previous Versions:   1  2  3  4  5  6  7  8  9  

Terminal Aerodrome Forecast

628
FTUS42 KTAE 281723
TAFTLH
TAF
KTLH 281723Z 2818/2918 08006KT P6SM SCT060 SCT150 BKN200
     FM290200 00000KT P6SM SCT060 BKN150
     FM291400 36007KT P6SM FEW040 SCT150=

Latest METAR

360
SAUS80 KWBC 291700 RRB
MTRTLH
METAR KTLH 291653Z 35005KT 10SM SCT050 SCT250 32/16 A3007 RMK AO2 SLP183
T03220156


USA.gov is the U.S. government's official web portal to all federal, state and local government web resources and services.